Time,TemperatureF,DewpointF,PressureIn,WindDirection,WindDirectionDegrees,WindSpeedMPH,WindSpeedGustMPH,Humidity,HourlyPrecipIn,Conditions,Clouds,dailyrainin,SoftwareType,DateUTC
2013-10-01 00:03:00,45.4,29.0,29.72,North,0,1.0,-999.0,54,-99.99,,,0.00,weatherlink.com 1.10,2013-10-01 06:03:00,
2013-10-01 00:18:00,45.2,30.0,29.72,North,0,3.0,-999.0,55,-99.99,,,0.00,weatherlink.com 1.10,2013-10-01 06:18:00,
2013-10-01 00:33:00,44.9,29.0,29.72,North,0,4.0,-999.0,55,-99.99,,,0.00,weatherlink.com 1.10,2013-10-01 06:33:00,
2013-10-01 00:48:00,44.9,29.0,29.71,North,0,5.0,-999.0,55,-99.99,,,0.00,weatherlink.com 1.10,2013-10-01 06:48:00,
2013-10-01 01:03:00,44.8,29.0,29.71,North,0,2.0,-999.0,55,-99.99,,,0.00,weatherlink.com 1.10,2013-10-01 07:03:00,
2013-10-01 01:18:00,45.1,29.0,29.71,North,0,0.0,-999.0,54,-99.99,,,0.00,weatherlink.com 1.10,2013-10-01 07:18:00,
2013-10-01 01:33:00,43.9,29.0,29.71,North,0,3.0,-999.0,57,-99.99,,,0.00,weatherlink.com 1.10,2013-10-01 07:33:00,
2013-10-01 01:48:00,43.8,30.0,29.71,North,0,3.0,-999.0,58,-99.99,,,0.00,weatherlink.com 1.10,2013-10-01 07:48:00,
2013-10-01 02:03:00,43.5,30.0,29.71,North,0,2.0,-999.0,60,-99.99,,,0.00,weatherlink.com 1.10,2013-10-01 08:03:00,
2013-10-01 02:18:00,42.2,30.0,29.73,North,0,2.0,-999.0,63,-99.99,,,0.00,weatherlink.com 1.10,2013-10-01 08:18:00,
2013-10-01 02:33:00,41.5,30.0,29.73,North,0,2.0,-999.0,63,-99.99,,,0.00,weatherlink.com 1.10,2013-10-01 08:33:00,
2013-10-01 02:48:00,41.5,29.0,29.72,North,0,2.0,-999.0,61,-99.99,,,0.00,weatherlink.com 1.10,2013-10-01 08:48:00,
2013-10-01 03:03:00,41.2,29.0,29.72,North,0,0.0,-999.0,62,-99.99,,,0.00,weatherlink.com 1.10,2013-10-01 09:03:00,
2013-10-01 03:18:00,39.3,29.0,29.73,North,0,0.0,-999.0,66,-99.99,,,0.00,weatherlink.com 1.10,2013-10-01 09:18:00,
2013-10-01 03:33:00,38.9,29.0,29.74,North,0,0.0,-999.0,69,-99.99,,,0.00,weatherlink.com 1.10,2013-10-01 09:33:00,
2013-10-01 03:48:00,40.5,30.0,29.72,North,0,2.0,-999.0,67,-99.99,,,0.00,weatherlink.com 1.10,2013-10-01 09:48:00,
2013-10-01 04:04:00,40.6,30.0,29.73,North,0,0.0,-999.0,67,-99.99,,,0.00,weatherlink.com 1.10,2013-10-01 10:04:00,
2013-10-01 04:19:00,39.5,29.0,29.73,North,0,0.0,-999.0,66,-99.99,,,0.00,weatherlink.com 1.10,2013-10-01 10:19:00,
2013-10-01 04:34:00,37.9,29.0,29.75,North,0,0.0,-999.0,70,-99.99,,,0.00,weatherlink.com 1.10,2013-10-01 10:34:00,
2013-10-01 04:49:00,37.8,30.0,29.75,North,0,0.0,-999.0,72,-99.99,,,0.00,weatherlink.com 1.10,2013-10-01 10:49:00,
2013-10-01 05:04:00,38.2,29.0,29.75,North,0,0.0,-999.0,69,-99.99,,,0.00,weatherlink.com 1.10,2013-10-01 11:04:00,
2013-10-01 05:19:00,37.8,28.0,29.76,North,0,0.0,-999.0,69,-99.99,,,0.00,weatherlink.com 1.10,2013-10-01 11:19:00,
2013-10-01 05:34:00,37.3,29.0,29.79,North,0,0.0,-999.0,71,-99.99,,,0.00,weatherlink.com 1.10,2013-10-01 11:34:00,
2013-10-01 05:49:00,37.5,30.0,29.78,North,0,0.0,-999.0,73,-99.99,,,0.00,weatherlink.com 1.10,2013-10-01 11:49:00,
2013-10-01 06:03:00,37.0,29.0,29.79,North,0,2.0,-999.0,73,-99.99,,,0.00,weatherlink.com 1.10,2013-10-01 12:03:00,
2013-10-01 06:20:00,37.2,29.0,29.79,North,0,3.0,-999.0,72,-99.99,,,0.00,weatherlink.com 1.10,2013-10-01 12:20:00,
2013-10-01 06:33:00,37.3,29.0,29.82,North,0,0.0,-999.0,71,-99.99,,,0.00,weatherlink.com 1.10,2013-10-01 12:33:00,
2013-10-01 06:49:00,37.0,29.0,29.83,North,0,0.0,-999.0,73,-99.99,,,0.00,weatherlink.com 1.10,2013-10-01 12:49:00,
2013-10-01 07:04:00,37.0,29.0,29.83,North,0,2.0,-999.0,74,-99.99,,,0.00,weatherlink.com 1.10,2013-10-01 13:04:00,
2013-10-01 07:20:00,38.3,29.0,29.83,North,1,2.0,-999.0,70,-99.99,,,0.00,weatherlink.com 1.10,2013-10-01 13:20:00,
2013-10-01 07:35:00,38.3,30.0,29.87,North,1,1.0,-999.0,72,-99.99,,,0.00,weatherlink.com 1.10,2013-10-01 13:35:00,
2013-10-01 07:49:00,40.8,30.0,29.85,North,1,2.0,-999.0,65,-99.99,,,0.00,weatherlink.com 1.10,2013-10-01 13:49:00,
2013-10-01 08:05:00,43.1,30.0,29.84,NNE,17,4.0,-999.0,61,-99.99,,,0.00,weatherlink.com 1.10,2013-10-01 14:05:00,
2013-10-01 08:20:00,45.4,31.0,29.83,NE,54,3.0,-999.0,57,-99.99,,,0.00,weatherlink.com 1.10,2013-10-01 14:20:00,
2013-10-01 08:35:00,48.2,33.0,29.86,NE,54,2.0,-999.0,55,-99.99,,,0.00,weatherlink.com 1.10,2013-10-01 14:35:00,
2013-10-01 08:51:00,51.1,33.0,29.84,NE,54,1.0,-999.0,51,-99.99,,,0.00,weatherlink.com 1.10,2013-10-01 14:51:00,
2013-10-01 09:06:00,54.2,34.0,29.83,NE,54,0.0,-999.0,47,-99.99,,,0.00,weatherlink.com 1.10,2013-10-01 15:06:00,
2013-10-01 09:21:00,57.0,34.0,29.81,NE,54,0.0,-999.0,43,-99.99,,,0.00,weatherlink.com 1.10,2013-10-01 15:21:00,
2013-10-01 09:36:00,57.8,33.0,29.83,NE,55,0.0,-999.0,39,-99.99,,,0.00,weatherlink.com 1.10,2013-10-01 15:36:00,
2013-10-01 10:07:00,59.2,33.0,29.83,SSE,164,1.0,-999.0,38,-99.99,,,0.00,weatherlink.com 1.10,2013-10-01 16:07:00,
2013-10-01 10:21:00,61.0,34.0,29.82,South,184,3.0,-999.0,37,-99.99,,,0.00,weatherlink.com 1.10,2013-10-01 16:21:00,
2013-10-01 10:36:00,62.9,35.0,29.81,South,190,0.0,-999.0,36,-99.99,,,0.00,weatherlink.com 1.10,2013-10-01 16:36:00,
2013-10-01 10:52:00,66.6,34.0,29.78,SE,143,0.0,-999.0,30,-99.99,,,0.00,weatherlink.com 1.10,2013-10-01 16:52:00,
2013-10-01 11:07:00,68.9,33.0,29.77,SSE,150,1.0,-999.0,27,-99.99,,,0.00,weatherlink.com 1.10,2013-10-01 17:07:00,
2013-10-01 11:23:00,69.4,33.0,29.77,SE,140,0.0,-999.0,26,-99.99,,,0.00,weatherlink.com 1.10,2013-10-01 17:23:00,
2013-10-01 11:36:00,70.4,33.0,29.78,SSW,203,0.0,-999.0,25,-99.99,,,0.00,weatherlink.com 1.10,2013-10-01 17:36:00,
2013-10-01 11:52:00,70.3,33.0,29.78,SSW,207,1.0,-999.0,25,-99.99,,,0.00,weatherlink.com 1.10,2013-10-01 17:52:00,
2013-10-01 12:08:00,71.1,31.0,29.76,WSW,243,4.0,-999.0,23,-99.99,,,0.00,weatherlink.com 1.10,2013-10-01 18:08:00,
2013-10-01 12:37:00,72.1,28.0,29.75,WSW,251,0.0,-999.0,19,-99.99,,,0.00,weatherlink.com 1.10,2013-10-01 18:37:00,
2013-10-01 12:53:00,72.7,29.0,29.75,SSE,153,3.0,-999.0,20,-99.99,,,0.00,weatherlink.com 1.10,2013-10-01 18:53:00,
2013-10-01 13:08:00,73.3,26.0,29.75,South,188,0.0,-999.0,17,-99.99,,,0.00,weatherlink.com 1.10,2013-10-01 19:08:00,
2013-10-01 13:23:00,74.0,26.0,29.74,SSW,206,0.0,-999.0,17,-99.99,,,0.00,weatherlink.com 1.10,2013-10-01 19:23:00,
2013-10-01 13:38:00,75.1,27.0,29.74,SW,218,2.0,-999.0,17,-99.99,,,0.00,weatherlink.com 1.10,2013-10-01 19:38:00,
2013-10-01 13:54:00,75.4,28.0,29.74,SSE,159,0.0,-999.0,17,-99.99,,,0.00,weatherlink.com 1.10,2013-10-01 19:54:00,
2013-10-01 14:08:00,75.8,26.0,29.72,SE,139,0.0,-999.0,16,-99.99,,,0.00,weatherlink.com 1.10,2013-10-01 20:08:00,
2013-10-01 14:24:00,75.6,21.0,29.71,SW,226,1.0,-999.0,13,-99.99,,,0.00,weatherlink.com 1.10,2013-10-01 20:24:00,
2013-10-01 14:38:00,76.0,23.0,29.74,WSW,253,3.0,-999.0,14,-99.99,,,0.00,weatherlink.com 1.10,2013-10-01 20:38:00,
2013-10-01 14:54:00,76.5,22.0,29.73,SSW,209,0.0,-999.0,13,-99.99,,,0.00,weatherlink.com 1.10,2013-10-01 20:54:00,
2013-10-01 15:08:00,76.7,22.0,29.73,SW,217,5.0,-999.0,13,-99.99,,,0.00,weatherlink.com 1.10,2013-10-01 21:08:00,
2013-10-01 15:24:00,77.2,24.0,29.71,West,271,4.0,-999.0,14,-99.99,,,0.00,weatherlink.com 1.10,2013-10-01 21:24:00,
2013-10-01 15:39:00,77.4,25.0,29.70,WSW,237,6.0,-999.0,14,-99.99,,,0.00,weatherlink.com 1.10,2013-10-01 21:39:00,
2013-10-01 15:55:00,77.2,23.0,29.71,West,269,4.0,-999.0,13,-99.99,,,0.00,weatherlink.com 1.10,2013-10-01 21:55:00,
2013-10-01 16:10:00,77.6,21.0,29.70,NW,314,5.0,-999.0,12,-99.99,,,0.00,weatherlink.com 1.10,2013-10-01 22:10:00,
2013-10-01 16:24:00,77.7,21.0,29.69,West,259,6.0,-999.0,12,-99.99,,,0.00,weatherlink.com 1.10,2013-10-01 22:24:00,
2013-10-01 16:40:00,77.9,21.0,29.70,West,272,4.0,-999.0,12,-99.99,,,0.00,weatherlink.com 1.10,2013-10-01 22:40:00,
2013-10-01 16:55:00,77.6,21.0,29.70,West,276,6.0,-999.0,12,-99.99,,,0.00,weatherlink.com 1.10,2013-10-01 22:55:00,
2013-10-01 17:11:00,77.6,21.0,29.71,West,278,2.0,-999.0,12,-99.99,,,0.00,weatherlink.com 1.10,2013-10-01 23:11:00,
2013-10-01 17:26:00,76.8,20.0,29.71,WSW,257,4.0,-999.0,12,-99.99,,,0.00,weatherlink.com 1.10,2013-10-01 23:26:00,
2013-10-01 17:40:00,76.1,22.0,29.71,WSW,238,10.0,-999.0,13,-99.99,,,0.00,weatherlink.com 1.10,2013-10-01 23:40:00,
2013-10-01 17:56:00,75.8,21.0,29.72,WSW,248,3.0,-999.0,13,-99.99,,,0.00,weatherlink.com 1.10,2013-10-01 23:56:00,
2013-10-01 18:11:00,75.1,23.0,29.72,WSW,250,6.0,-999.0,14,-99.99,,,0.00,weatherlink.com 1.10,2013-10-02 00:11:00,
2013-10-01 18:26:00,74.2,22.0,29.73,WSW,245,4.0,-999.0,14,-99.99,,,0.00,weatherlink.com 1.10,2013-10-02 00:26:00,
2013-10-01 18:42:00,72.5,22.0,29.73,WSW,238,0.0,-999.0,15,-99.99,,,0.00,weatherlink.com 1.10,2013-10-02 00:42:00,
2013-10-01 18:56:00,70.3,23.0,29.74,WSW,238,0.0,-999.0,17,-99.99,,,0.00,weatherlink.com 1.10,2013-10-02 00:56:00,
2013-10-01 19:12:00,68.4,22.0,29.75,WSW,238,0.0,-999.0,17,-99.99,,,0.00,weatherlink.com 1.10,2013-10-02 01:12:00,
2013-10-01 19:27:00,67.1,22.0,29.76,WSW,238,0.0,-999.0,18,-99.99,,,0.00,weatherlink.com 1.10,2013-10-02 01:27:00,
2013-10-01 19:41:00,65.6,23.0,29.73,WSW,238,1.0,-999.0,20,-99.99,,,0.00,weatherlink.com 1.10,2013-10-02 01:41:00,
2013-10-01 19:56:00,59.8,26.0,29.76,WSW,245,0.0,-999.0,27,-99.99,,,0.00,weatherlink.com 1.10,2013-10-02 01:56:00,
2013-10-01 20:11:00,58.0,26.0,29.77,NW,305,2.0,-999.0,29,-99.99,,,0.00,weatherlink.com 1.10,2013-10-02 02:11:00,
2013-10-01 20:26:00,56.2,26.0,29.79,North,349,5.0,-999.0,31,-99.99,,,0.00,weatherlink.com 1.10,2013-10-02 02:26:00,
2013-10-01 20:41:00,54.7,25.0,29.75,NE,38,2.0,-999.0,32,-99.99,,,0.00,weatherlink.com 1.10,2013-10-02 02:41:00,
2013-10-01 20:56:00,54.1,26.0,29.74,NE,38,0.0,-999.0,34,-99.99,,,0.00,weatherlink.com 1.10,2013-10-02 02:56:00,
2013-10-01 21:11:00,51.4,27.0,29.75,NE,37,3.0,-999.0,39,-99.99,,,0.00,weatherlink.com 1.10,2013-10-02 03:11:00,
2013-10-01 21:26:00,49.6,29.0,29.78,North,1,4.0,-999.0,45,-99.99,,,0.00,weatherlink.com 1.10,2013-10-02 03:26:00,
2013-10-01 21:41:00,49.4,30.0,29.76,North,1,0.0,-999.0,47,-99.99,,,0.00,weatherlink.com 1.10,2013-10-02 03:41:00,
2013-10-01 21:56:00,48.6,29.0,29.76,North,1,2.0,-999.0,47,-99.99,,,0.00,weatherlink.com 1.10,2013-10-02 03:56:00,
2013-10-01 22:11:00,49.1,29.0,29.77,NNE,20,1.0,-999.0,47,-99.99,,,0.00,weatherlink.com 1.10,2013-10-02 04:11:00,
2013-10-01 22:26:00,49.9,27.0,29.77,NE,46,4.0,-999.0,41,-99.99,,,0.00,weatherlink.com 1.10,2013-10-02 04:26:00,
2013-10-01 22:41:00,50.5,26.0,29.73,NE,42,3.0,-999.0,39,-99.99,,,0.00,weatherlink.com 1.10,2013-10-02 04:41:00,
2013-10-01 22:56:00,51.1,27.0,29.72,NE,41,4.0,-999.0,39,-99.99,,,0.00,weatherlink.com 1.10,2013-10-02 04:56:00,
2013-10-01 23:11:00,51.1,27.0,29.71,NNE,27,4.0,-999.0,40,-99.99,,,0.00,weatherlink.com 1.10,2013-10-02 05:11:00,
2013-10-01 23:26:00,50.8,28.0,29.71,NNE,29,2.0,-999.0,41,-99.99,,,0.00,weatherlink.com 1.10,2013-10-02 05:26:00,
2013-10-01 23:41:00,49.6,28.0,29.70,NNE,30,0.0,-999.0,43,-99.99,,,0.00,weatherlink.com 1.10,2013-10-02 05:41:00,
2013-10-01 23:56:00,49.1,29.0,29.70,NNE,31,2.0,-999.0,46,-99.99,,,0.00,weatherlink.com 1.10,2013-10-02 05:56:00,